HTUV weather

Uvinza Airport
Uvinza, Xigoma Region, Tanzania

Public forecast

Using degrees Celsius for public forecast. Weather courtesy of forecast.io.

Closest aviation weather report (METAR) to Uvinza Airport

Closest report is Kigoma Airport, 45.7 nm (84.6 km) WNW. Retrieved 2020/06/02 11:00 UTC (24 minutes ago):

HTKA 021100Z 10010KT 9999 FEW027 30/14 Q1017 NOSIG

Closest aviation forecast (TAF) to Uvinza Airport

Forecast is more than 12 hours old.

Closest forecast is Kigoma Airport, 45.7 nm (84.6 km) WNW. Retrieved 2020/05/21 06:24 UTC (12 days ago):

TAF HTKA 210500Z 2106/2206 12005KT 9999 SCT020 FEW021CB SCT080 TEMPO 2106/2143 12010KT